sensor_id;sensor_type;location;lat;lon;timestamp;temperature;humidity
49679;DHT22;35570;48.218;16.326;2023-02-27T00:00:29;2.70;68.50
49679;DHT22;35570;48.218;16.326;2023-02-27T00:02:55;2.70;68.30
49679;DHT22;35570;48.218;16.326;2023-02-27T00:05:22;2.70;68.40
49679;DHT22;35570;48.218;16.326;2023-02-27T00:07:49;2.70;68.20
49679;DHT22;35570;48.218;16.326;2023-02-27T00:10:16;2.70;68.50
49679;DHT22;35570;48.218;16.326;2023-02-27T00:12:42;2.70;69.00
49679;DHT22;35570;48.218;16.326;2023-02-27T00:15:13;2.60;69.30
49679;DHT22;35570;48.218;16.326;2023-02-27T00:17:39;2.50;69.60
49679;DHT22;35570;48.218;16.326;2023-02-27T00:20:06;2.50;70.10
49679;DHT22;35570;48.218;16.326;2023-02-27T00:22:32;2.50;69.90
49679;DHT22;35570;48.218;16.326;2023-02-27T00:24:57;2.60;70.10
49679;DHT22;35570;48.218;16.326;2023-02-27T00:27:23;2.60;70.90
49679;DHT22;35570;48.218;16.326;2023-02-27T00:29:49;2.70;69.90
49679;DHT22;35570;48.218;16.326;2023-02-27T00:32:15;2.70;69.20
49679;DHT22;35570;48.218;16.326;2023-02-27T00:34:41;2.70;69.50
49679;DHT22;35570;48.218;16.326;2023-02-27T00:37:06;2.80;69.80
49679;DHT22;35570;48.218;16.326;2023-02-27T00:39:32;2.80;70.20
49679;DHT22;35570;48.218;16.326;2023-02-27T00:41:58;2.70;69.60
49679;DHT22;35570;48.218;16.326;2023-02-27T00:44:24;2.70;70.30
49679;DHT22;35570;48.218;16.326;2023-02-27T00:46:49;2.70;69.90
49679;DHT22;35570;48.218;16.326;2023-02-27T00:49:15;2.70;69.80
49679;DHT22;35570;48.218;16.326;2023-02-27T00:51:41;2.80;69.70
49679;DHT22;35570;48.218;16.326;2023-02-27T00:54:06;2.90;69.60
49679;DHT22;35570;48.218;16.326;2023-02-27T00:56:33;2.90;71.10
49679;DHT22;35570;48.218;16.326;2023-02-27T00:58:59;2.90;69.80
49679;DHT22;35570;48.218;16.326;2023-02-27T01:01:25;2.90;69.40
49679;DHT22;35570;48.218;16.326;2023-02-27T01:03:50;3.00;70.30
49679;DHT22;35570;48.218;16.326;2023-02-27T01:06:16;3.00;70.50
49679;DHT22;35570;48.218;16.326;2023-02-27T01:08:42;3.00;69.50
49679;DHT22;35570;48.218;16.326;2023-02-27T01:11:07;3.00;69.20
49679;DHT22;35570;48.218;16.326;2023-02-27T01:13:33;2.90;69.10
49679;DHT22;35570;48.218;16.326;2023-02-27T01:15:59;3.00;69.70
49679;DHT22;35570;48.218;16.326;2023-02-27T01:18:24;3.00;69.40
49679;DHT22;35570;48.218;16.326;2023-02-27T01:20:54;3.00;69.10
49679;DHT22;35570;48.218;16.326;2023-02-27T01:23:21;3.10;69.20
49679;DHT22;35570;48.218;16.326;2023-02-27T01:25:47;3.10;69.20
49679;DHT22;35570;48.218;16.326;2023-02-27T01:28:14;3.00;69.70
49679;DHT22;35570;48.218;16.326;2023-02-27T01:30:40;3.00;70.10
49679;DHT22;35570;48.218;16.326;2023-02-27T01:33:06;3.00;69.60
49679;DHT22;35570;48.218;16.326;2023-02-27T01:35:33;3.00;69.30
49679;DHT22;35570;48.218;16.326;2023-02-27T01:37:59;3.00;68.60
49679;DHT22;35570;48.218;16.326;2023-02-27T01:40:25;3.00;69.10
49679;DHT22;35570;48.218;16.326;2023-02-27T01:42:51;3.10;68.80
49679;DHT22;35570;48.218;16.326;2023-02-27T01:47:53;3.00;68.80
49679;DHT22;35570;48.218;16.326;2023-02-27T01:50:21;3.00;68.60
49679;DHT22;35570;48.218;16.326;2023-02-27T01:52:52;3.00;68.90
49679;DHT22;35570;48.218;16.326;2023-02-27T01:55:19;3.00;68.50
49679;DHT22;35570;48.218;16.326;2023-02-27T01:57:45;3.00;68.10
49679;DHT22;35570;48.218;16.326;2023-02-27T02:00:13;3.00;67.60
49679;DHT22;35570;48.218;16.326;2023-02-27T02:02:43;3.10;67.50
49679;DHT22;35570;48.218;16.326;2023-02-27T02:05:11;3.10;67.50
49679;DHT22;35570;48.218;16.326;2023-02-27T02:07:39;3.00;67.70
49679;DHT22;35570;48.218;16.326;2023-02-27T02:10:06;3.00;67.70
49679;DHT22;35570;48.218;16.326;2023-02-27T02:12:35;3.00;67.90
49679;DHT22;35570;48.218;16.326;2023-02-27T02:15:02;3.00;68.40
49679;DHT22;35570;48.218;16.326;2023-02-27T02:20:28;3.00;68.30
49679;DHT22;35570;48.218;16.326;2023-02-27T02:26:07;3.00;67.50
49679;DHT22;35570;48.218;16.326;2023-02-27T02:42:49;2.90;66.00
49679;DHT22;35570;48.218;16.326;2023-02-27T02:45:26;2.90;66.20
49679;DHT22;35570;48.218;16.326;2023-02-27T02:51:00;2.90;66.80
49679;DHT22;35570;48.218;16.326;2023-02-27T02:56:17;2.80;66.20
49679;DHT22;35570;48.218;16.326;2023-02-27T03:01:25;2.80;66.30
49679;DHT22;35570;48.218;16.326;2023-02-27T03:03:57;2.80;66.40
49679;DHT22;35570;48.218;16.326;2023-02-27T03:06:29;2.80;66.40
49679;DHT22;35570;48.218;16.326;2023-02-27T03:09:31;2.70;67.30
49679;DHT22;35570;48.218;16.326;2023-02-27T03:11:59;2.80;67.20
49679;DHT22;35570;48.218;16.326;2023-02-27T03:14:34;2.80;65.80
49679;DHT22;35570;48.218;16.326;2023-02-27T03:17:06;2.70;66.60
49679;DHT22;35570;48.218;16.326;2023-02-27T03:19:42;2.80;66.60
49679;DHT22;35570;48.218;16.326;2023-02-27T03:22:16;2.80;65.60
49679;DHT22;35570;48.218;16.326;2023-02-27T03:24:50;2.80;65.40
49679;DHT22;35570;48.218;16.326;2023-02-27T03:27:17;2.80;65.10
49679;DHT22;35570;48.218;16.326;2023-02-27T03:30:09;2.70;65.50
49679;DHT22;35570;48.218;16.326;2023-02-27T03:32:56;2.80;66.00
49679;DHT22;35570;48.218;16.326;2023-02-27T03:41:16;2.80;64.90
49679;DHT22;35570;48.218;16.326;2023-02-27T03:43:47;2.70;65.40
49679;DHT22;35570;48.218;16.326;2023-02-27T03:46:23;2.70;65.90
49679;DHT22;35570;48.218;16.326;2023-02-27T03:48:50;2.70;65.50
49679;DHT22;35570;48.218;16.326;2023-02-27T03:51:19;2.60;65.90
49679;DHT22;35570;48.218;16.326;2023-02-27T03:56:47;2.50;64.30
49679;DHT22;35570;48.218;16.326;2023-02-27T03:59:14;2.40;65.60
49679;DHT22;35570;48.218;16.326;2023-02-27T04:01:41;2.40;65.20
49679;DHT22;35570;48.218;16.326;2023-02-27T04:04:13;2.30;65.50
49679;DHT22;35570;48.218;16.326;2023-02-27T04:07:30;2.40;65.80
49679;DHT22;35570;48.218;16.326;2023-02-27T04:20:41;2.20;65.90
49679;DHT22;35570;48.218;16.326;2023-02-27T04:23:33;2.20;65.60
49679;DHT22;35570;48.218;16.326;2023-02-27T04:28:40;2.00;65.40
49679;DHT22;35570;48.218;16.326;2023-02-27T04:31:21;2.10;65.00
49679;DHT22;35570;48.218;16.326;2023-02-27T04:34:02;2.00;65.60
49679;DHT22;35570;48.218;16.326;2023-02-27T04:36:40;2.00;65.70
49679;DHT22;35570;48.218;16.326;2023-02-27T04:39:09;2.00;65.20
49679;DHT22;35570;48.218;16.326;2023-02-27T04:41:42;2.00;64.80
49679;DHT22;35570;48.218;16.326;2023-02-27T04:44:10;2.00;64.30
49679;DHT22;35570;48.218;16.326;2023-02-27T04:46:39;2.00;65.60
49679;DHT22;35570;48.218;16.326;2023-02-27T04:49:17;2.10;65.00
49679;DHT22;35570;48.218;16.326;2023-02-27T04:51:50;2.10;64.50
49679;DHT22;35570;48.218;16.326;2023-02-27T04:54:25;2.10;64.50
49679;DHT22;35570;48.218;16.326;2023-02-27T04:56:55;2.10;63.60
49679;DHT22;35570;48.218;16.326;2023-02-27T04:59:26;2.20;64.10
49679;DHT22;35570;48.218;16.326;2023-02-27T05:04:32;2.30;63.40
49679;DHT22;35570;48.218;16.326;2023-02-27T05:07:00;2.20;63.00
49679;DHT22;35570;48.218;16.326;2023-02-27T05:09:39;2.30;63.20
49679;DHT22;35570;48.218;16.326;2023-02-27T05:12:22;2.20;62.70
49679;DHT22;35570;48.218;16.326;2023-02-27T05:15:03;2.30;62.60
49679;DHT22;35570;48.218;16.326;2023-02-27T05:17:35;2.20;63.10
49679;DHT22;35570;48.218;16.326;2023-02-27T05:20:03;2.10;63.10
49679;DHT22;35570;48.218;16.326;2023-02-27T05:22:36;2.10;63.40
49679;DHT22;35570;48.218;16.326;2023-02-27T05:30:30;2.20;64.20
49679;DHT22;35570;48.218;16.326;2023-02-27T05:33:11;2.10;64.80
49679;DHT22;35570;48.218;16.326;2023-02-27T05:35:55;2.10;65.20
49679;DHT22;35570;48.218;16.326;2023-02-27T05:38:39;2.10;67.00
49679;DHT22;35570;48.218;16.326;2023-02-27T05:41:10;2.10;65.40
49679;DHT22;35570;48.218;16.326;2023-02-27T05:43:46;2.10;65.40
49679;DHT22;35570;48.218;16.326;2023-02-27T05:46:23;2.10;64.80
49679;DHT22;35570;48.218;16.326;2023-02-27T05:49:16;2.10;63.20
49679;DHT22;35570;48.218;16.326;2023-02-27T05:51:45;2.10;63.20
49679;DHT22;35570;48.218;16.326;2023-02-27T05:54:21;2.00;63.20
49679;DHT22;35570;48.218;16.326;2023-02-27T05:56:50;2.00;62.80
49679;DHT22;35570;48.218;16.326;2023-02-27T05:59:26;2.00;63.90
49679;DHT22;35570;48.218;16.326;2023-02-27T06:01:52;1.90;62.20
49679;DHT22;35570;48.218;16.326;2023-02-27T06:04:18;1.90;63.50
49679;DHT22;35570;48.218;16.326;2023-02-27T06:06:44;2.00;63.10
49679;DHT22;35570;48.218;16.326;2023-02-27T06:09:09;2.00;62.80
49679;DHT22;35570;48.218;16.326;2023-02-27T06:11:35;2.00;63.30
49679;DHT22;35570;48.218;16.326;2023-02-27T06:14:01;2.00;63.50
49679;DHT22;35570;48.218;16.326;2023-02-27T06:16:33;2.10;63.50
49679;DHT22;35570;48.218;16.326;2023-02-27T06:19:03;2.10;63.70
49679;DHT22;35570;48.218;16.326;2023-02-27T06:21:29;2.10;62.80
49679;DHT22;35570;48.218;16.326;2023-02-27T06:23:54;2.10;62.40
49679;DHT22;35570;48.218;16.326;2023-02-27T06:26:20;2.10;62.80
49679;DHT22;35570;48.218;16.326;2023-02-27T06:28:46;2.10;62.50
49679;DHT22;35570;48.218;16.326;2023-02-27T06:31:11;2.20;63.50
49679;DHT22;35570;48.218;16.326;2023-02-27T06:33:37;2.20;63.80
49679;DHT22;35570;48.218;16.326;2023-02-27T06:36:03;2.20;63.50
49679;DHT22;35570;48.218;16.326;2023-02-27T06:38:29;2.20;64.10
49679;DHT22;35570;48.218;16.326;2023-02-27T06:40:54;2.30;64.90
49679;DHT22;35570;48.218;16.326;2023-02-27T06:43:20;2.30;64.40
49679;DHT22;35570;48.218;16.326;2023-02-27T06:45:48;2.40;65.60
49679;DHT22;35570;48.218;16.326;2023-02-27T06:48:14;2.40;66.20
49679;DHT22;35570;48.218;16.326;2023-02-27T06:50:40;2.50;66.10
49679;DHT22;35570;48.218;16.326;2023-02-27T06:53:05;2.50;66.10
49679;DHT22;35570;48.218;16.326;2023-02-27T06:55:32;2.60;64.90
49679;DHT22;35570;48.218;16.326;2023-02-27T06:57:58;2.70;65.80
49679;DHT22;35570;48.218;16.326;2023-02-27T07:00:23;2.80;65.70
49679;DHT22;35570;48.218;16.326;2023-02-27T07:02:49;2.80;64.60
49679;DHT22;35570;48.218;16.326;2023-02-27T07:05:15;2.90;64.70
49679;DHT22;35570;48.218;16.326;2023-02-27T07:07:40;3.00;63.70
49679;DHT22;35570;48.218;16.326;2023-02-27T07:10:09;3.10;63.10
49679;DHT22;35570;48.218;16.326;2023-02-27T07:12:36;3.10;61.00
49679;DHT22;35570;48.218;16.326;2023-02-27T07:15:03;3.10;62.90
49679;DHT22;35570;48.218;16.326;2023-02-27T07:17:29;3.10;60.00
49679;DHT22;35570;48.218;16.326;2023-02-27T07:19:56;3.10;59.60
49679;DHT22;35570;48.218;16.326;2023-02-27T07:22:21;3.10;59.30
49679;DHT22;35570;48.218;16.326;2023-02-27T07:24:47;3.10;61.40
49679;DHT22;35570;48.218;16.326;2023-02-27T07:27:13;3.20;59.90
49679;DHT22;35570;48.218;16.326;2023-02-27T07:29:38;3.30;61.00
49679;DHT22;35570;48.218;16.326;2023-02-27T07:32:04;3.30;59.10
49679;DHT22;35570;48.218;16.326;2023-02-27T07:34:30;3.30;58.70
49679;DHT22;35570;48.218;16.326;2023-02-27T07:36:55;3.40;59.40
49679;DHT22;35570;48.218;16.326;2023-02-27T07:39:22;3.50;57.50
49679;DHT22;35570;48.218;16.326;2023-02-27T07:41:48;3.50;58.60
49679;DHT22;35570;48.218;16.326;2023-02-27T07:44:13;3.60;58.40
49679;DHT22;35570;48.218;16.326;2023-02-27T07:46:39;3.70;58.10
49679;DHT22;35570;48.218;16.326;2023-02-27T07:49:05;3.80;59.20
49679;DHT22;35570;48.218;16.326;2023-02-27T07:51:31;4.00;62.40
49679;DHT22;35570;48.218;16.326;2023-02-27T07:53:57;4.20;62.30
49679;DHT22;35570;48.218;16.326;2023-02-27T07:56:26;4.40;60.70
49679;DHT22;35570;48.218;16.326;2023-02-27T07:58:52;4.70;59.70
49679;DHT22;35570;48.218;16.326;2023-02-27T08:01:17;4.80;57.90
49679;DHT22;35570;48.218;16.326;2023-02-27T08:03:43;5.10;56.20
49679;DHT22;35570;48.218;16.326;2023-02-27T08:06:09;5.30;55.60
49679;DHT22;35570;48.218;16.326;2023-02-27T08:08:35;5.30;53.20
49679;DHT22;35570;48.218;16.326;2023-02-27T08:11:01;5.30;53.10
49679;DHT22;35570;48.218;16.326;2023-02-27T08:13:26;5.20;52.10
49679;DHT22;35570;48.218;16.326;2023-02-27T08:15:52;5.10;54.00
49679;DHT22;35570;48.218;16.326;2023-02-27T08:18:19;5.10;52.90
49679;DHT22;35570;48.218;16.326;2023-02-27T08:20:44;5.00;53.20
49679;DHT22;35570;48.218;16.326;2023-02-27T08:23:11;5.10;52.60
49679;DHT22;35570;48.218;16.326;2023-02-27T08:25:36;5.10;52.60
49679;DHT22;35570;48.218;16.326;2023-02-27T08:28:02;5.10;53.40
49679;DHT22;35570;48.218;16.326;2023-02-27T08:30:28;5.00;52.30
49679;DHT22;35570;48.218;16.326;2023-02-27T08:32:54;4.80;52.70
49679;DHT22;35570;48.218;16.326;2023-02-27T08:35:20;4.80;54.10
49679;DHT22;35570;48.218;16.326;2023-02-27T08:37:46;4.70;53.40
49679;DHT22;35570;48.218;16.326;2023-02-27T08:40:13;4.60;51.80
49679;DHT22;35570;48.218;16.326;2023-02-27T08:42:39;4.50;55.00
49679;DHT22;35570;48.218;16.326;2023-02-27T08:45:05;4.50;52.20
49679;DHT22;35570;48.218;16.326;2023-02-27T08:47:31;4.40;52.00
49679;DHT22;35570;48.218;16.326;2023-02-27T08:49:56;4.50;54.40
49679;DHT22;35570;48.218;16.326;2023-02-27T08:52:22;4.50;53.70
49679;DHT22;35570;48.218;16.326;2023-02-27T08:54:48;4.50;53.80
49679;DHT22;35570;48.218;16.326;2023-02-27T08:57:13;4.60;53.70
49679;DHT22;35570;48.218;16.326;2023-02-27T08:59:39;4.70;52.30
49679;DHT22;35570;48.218;16.326;2023-02-27T09:02:05;4.80;53.30
49679;DHT22;35570;48.218;16.326;2023-02-27T09:04:31;5.10;52.60
49679;DHT22;35570;48.218;16.326;2023-02-27T09:06:56;5.30;54.20
49679;DHT22;35570;48.218;16.326;2023-02-27T09:09:22;5.50;51.10
49679;DHT22;35570;48.218;16.326;2023-02-27T09:11:51;5.60;52.00
49679;DHT22;35570;48.218;16.326;2023-02-27T09:14:16;5.70;51.40
49679;DHT22;35570;48.218;16.326;2023-02-27T09:16:43;5.90;49.50
49679;DHT22;35570;48.218;16.326;2023-02-27T09:19:09;5.90;49.90
49679;DHT22;35570;48.218;16.326;2023-02-27T09:21:35;6.00;48.40
49679;DHT22;35570;48.218;16.326;2023-02-27T09:24:05;6.10;49.20
49679;DHT22;35570;48.218;16.326;2023-02-27T09:26:31;6.10;49.20
49679;DHT22;35570;48.218;16.326;2023-02-27T09:28:57;6.10;48.40
49679;DHT22;35570;48.218;16.326;2023-02-27T09:31:22;5.90;47.00
49679;DHT22;35570;48.218;16.326;2023-02-27T09:33:48;5.90;48.40
49679;DHT22;35570;48.218;16.326;2023-02-27T09:36:14;5.90;49.50
49679;DHT22;35570;48.218;16.326;2023-02-27T09:38:40;5.80;48.70
49679;DHT22;35570;48.218;16.326;2023-02-27T09:41:15;5.90;49.50
49679;DHT22;35570;48.218;16.326;2023-02-27T09:43:47;6.10;50.50
49679;DHT22;35570;48.218;16.326;2023-02-27T09:46:20;6.40;50.10
49679;DHT22;35570;48.218;16.326;2023-02-27T09:48:53;6.60;50.50
49679;DHT22;35570;48.218;16.326;2023-02-27T09:51:20;7.10;51.10
49679;DHT22;35570;48.218;16.326;2023-02-27T09:53:55;7.60;49.70
49679;DHT22;35570;48.218;16.326;2023-02-27T09:56:53;8.00;48.70
49679;DHT22;35570;48.218;16.326;2023-02-27T10:02:00;8.40;47.80
49679;DHT22;35570;48.218;16.326;2023-02-27T10:07:15;8.40;45.10
49679;DHT22;35570;48.218;16.326;2023-02-27T10:15:38;9.00;44.60
49679;DHT22;35570;48.218;16.326;2023-02-27T10:18:16;9.00;44.00
49679;DHT22;35570;48.218;16.326;2023-02-27T10:20:57;9.10;43.50
49679;DHT22;35570;48.218;16.326;2023-02-27T10:23:45;9.40;44.10
49679;DHT22;35570;48.218;16.326;2023-02-27T10:26:38;9.60;42.90
49679;DHT22;35570;48.218;16.326;2023-02-27T10:31:58;9.90;42.50
49679;DHT22;35570;48.218;16.326;2023-02-27T10:34:26;9.70;44.70
49679;DHT22;35570;48.218;16.326;2023-02-27T10:36:53;9.50;45.00
49679;DHT22;35570;48.218;16.326;2023-02-27T10:39:20;9.10;44.90
49679;DHT22;35570;48.218;16.326;2023-02-27T10:41:47;8.90;44.90
49679;DHT22;35570;48.218;16.326;2023-02-27T10:44:15;9.00;46.30
49679;DHT22;35570;48.218;16.326;2023-02-27T10:46:43;9.30;45.40
49679;DHT22;35570;48.218;16.326;2023-02-27T10:49:19;9.10;44.90
49679;DHT22;35570;48.218;16.326;2023-02-27T10:52:11;8.90;45.60
49679;DHT22;35570;48.218;16.326;2023-02-27T10:54:38;9.20;45.20
49679;DHT22;35570;48.218;16.326;2023-02-27T10:57:30;9.10;45.30
49679;DHT22;35570;48.218;16.326;2023-02-27T11:00:03;8.50;44.90
49679;DHT22;35570;48.218;16.326;2023-02-27T11:02:35;8.10;46.60
49679;DHT22;35570;48.218;16.326;2023-02-27T11:05:03;7.80;47.80
49679;DHT22;35570;48.218;16.326;2023-02-27T11:07:35;7.80;46.90
49679;DHT22;35570;48.218;16.326;2023-02-27T11:12:41;8.40;45.60
49679;DHT22;35570;48.218;16.326;2023-02-27T11:15:31;8.30;45.30
49679;DHT22;35570;48.218;16.326;2023-02-27T11:18:23;8.30;46.90
49679;DHT22;35570;48.218;16.326;2023-02-27T11:20:49;8.10;46.70
49679;DHT22;35570;48.218;16.326;2023-02-27T11:23:22;7.90;47.90
49679;DHT22;35570;48.218;16.326;2023-02-27T11:25:49;7.50;47.70
49679;DHT22;35570;48.218;16.326;2023-02-27T11:28:27;7.20;49.50
49679;DHT22;35570;48.218;16.326;2023-02-27T11:31:14;6.90;49.80
49679;DHT22;35570;48.218;16.326;2023-02-27T11:33:54;6.70;50.40
49679;DHT22;35570;48.218;16.326;2023-02-27T11:36:21;6.60;50.00
49679;DHT22;35570;48.218;16.326;2023-02-27T11:38:55;6.70;50.50
49679;DHT22;35570;48.218;16.326;2023-02-27T11:41:32;6.90;50.00
49679;DHT22;35570;48.218;16.326;2023-02-27T11:43:59;7.10;50.50
49679;DHT22;35570;48.218;16.326;2023-02-27T11:46:27;7.30;50.30
49679;DHT22;35570;48.218;16.326;2023-02-27T11:52:08;7.60;48.00
49679;DHT22;35570;48.218;16.326;2023-02-27T11:54:54;7.50;49.00
49679;DHT22;35570;48.218;16.326;2023-02-27T11:57:29;7.20;49.70
49679;DHT22;35570;48.218;16.326;2023-02-27T12:03:18;6.90;51.50
49679;DHT22;35570;48.218;16.326;2023-02-27T12:05:28;6.70;50.90
49679;DHT22;35570;48.218;16.326;2023-02-27T12:08:00;6.60;51.90
49679;DHT22;35570;48.218;16.326;2023-02-27T12:10:27;6.50;52.50
49679;DHT22;35570;48.218;16.326;2023-02-27T12:13:30;6.40;51.40
49679;DHT22;35570;48.218;16.326;2023-02-27T12:16:18;6.30;52.60
49679;DHT22;35570;48.218;16.326;2023-02-27T12:19:08;6.40;52.30
49679;DHT22;35570;48.218;16.326;2023-02-27T12:21:40;6.50;53.30
49679;DHT22;35570;48.218;16.326;2023-02-27T12:24:21;6.70;51.70
49679;DHT22;35570;48.218;16.326;2023-02-27T12:29:48;7.20;51.10
49679;DHT22;35570;48.218;16.326;2023-02-27T12:35:30;7.70;49.70
49679;DHT22;35570;48.218;16.326;2023-02-27T12:37:57;7.50;51.70
49679;DHT22;35570;48.218;16.326;2023-02-27T12:40:30;7.20;50.50
49679;DHT22;35570;48.218;16.326;2023-02-27T12:45:52;6.50;51.30
49679;DHT22;35570;48.218;16.326;2023-02-27T12:48:26;6.20;52.50
49679;DHT22;35570;48.218;16.326;2023-02-27T13:02:10;6.30;54.60
49679;DHT22;35570;48.218;16.326;2023-02-27T13:05:22;6.70;51.40
49679;DHT22;35570;48.218;16.326;2023-02-27T13:11:06;6.70;50.90
49679;DHT22;35570;48.218;16.326;2023-02-27T13:13:39;6.50;50.90
49679;DHT22;35570;48.218;16.326;2023-02-27T13:16:14;6.20;52.20
49679;DHT22;35570;48.218;16.326;2023-02-27T13:18:55;6.00;51.40
49679;DHT22;35570;48.218;16.326;2023-02-27T13:21:29;5.90;52.30
49679;DHT22;35570;48.218;16.326;2023-02-27T13:26:47;5.70;52.90
49679;DHT22;35570;48.218;16.326;2023-02-27T13:29:17;5.60;52.70
49679;DHT22;35570;48.218;16.326;2023-02-27T13:31:46;5.50;53.40
49679;DHT22;35570;48.218;16.326;2023-02-27T13:34:47;5.40;53.10
49679;DHT22;35570;48.218;16.326;2023-02-27T13:37:14;5.50;53.70
49679;DHT22;35570;48.218;16.326;2023-02-27T13:44:56;5.60;56.00
49679;DHT22;35570;48.218;16.326;2023-02-27T13:50:00;5.70;54.60
49679;DHT22;35570;48.218;16.326;2023-02-27T13:52:36;5.80;54.20
49679;DHT22;35570;48.218;16.326;2023-02-27T13:55:06;5.90;52.80
49679;DHT22;35570;48.218;16.326;2023-02-27T13:57:49;5.80;52.20
49679;DHT22;35570;48.218;16.326;2023-02-27T14:02:56;5.60;53.80
49679;DHT22;35570;48.218;16.326;2023-02-27T14:05:43;5.60;54.30
49679;DHT22;35570;48.218;16.326;2023-02-27T14:08:18;5.60;52.10
49679;DHT22;35570;48.218;16.326;2023-02-27T14:24:32;5.20;54.20
49679;DHT22;35570;48.218;16.326;2023-02-27T14:27:02;5.20;55.60
49679;DHT22;35570;48.218;16.326;2023-02-27T14:29:30;5.30;54.80
49679;DHT22;35570;48.218;16.326;2023-02-27T14:32:00;5.40;54.00
49679;DHT22;35570;48.218;16.326;2023-02-27T14:34:27;5.40;55.50
49679;DHT22;35570;48.218;16.326;2023-02-27T14:36:58;5.40;54.30
49679;DHT22;35570;48.218;16.326;2023-02-27T14:39:32;5.50;53.40
49679;DHT22;35570;48.218;16.326;2023-02-27T14:44:46;5.70;54.40
49679;DHT22;35570;48.218;16.326;2023-02-27T14:47:17;5.60;54.10
49679;DHT22;35570;48.218;16.326;2023-02-27T14:49:45;5.60;55.10
49679;DHT22;35570;48.218;16.326;2023-02-27T14:52:18;5.60;54.20
49679;DHT22;35570;48.218;16.326;2023-02-27T14:54:44;5.60;54.00
49679;DHT22;35570;48.218;16.326;2023-02-27T14:57:17;5.50;52.80
49679;DHT22;35570;48.218;16.326;2023-02-27T14:59:49;5.40;51.70
49679;DHT22;35570;48.218;16.326;2023-02-27T15:02:30;5.20;53.60
49679;DHT22;35570;48.218;16.326;2023-02-27T15:07:29;5.10;54.70
49679;DHT22;35570;48.218;16.326;2023-02-27T15:09:58;5.00;53.30
49679;DHT22;35570;48.218;16.326;2023-02-27T15:12:24;5.00;54.70
49679;DHT22;35570;48.218;16.326;2023-02-27T15:14:53;5.00;54.00
49679;DHT22;35570;48.218;16.326;2023-02-27T15:17:24;5.10;54.30
49679;DHT22;35570;48.218;16.326;2023-02-27T15:19:56;5.00;54.50
49679;DHT22;35570;48.218;16.326;2023-02-27T15:22:27;5.10;54.30
49679;DHT22;35570;48.218;16.326;2023-02-27T15:24:56;5.00;55.50
49679;DHT22;35570;48.218;16.326;2023-02-27T15:27:24;5.10;54.40
49679;DHT22;35570;48.218;16.326;2023-02-27T15:29:55;5.10;53.50
49679;DHT22;35570;48.218;16.326;2023-02-27T15:32:32;5.10;54.60
49679;DHT22;35570;48.218;16.326;2023-02-27T15:35:05;5.10;55.60
49679;DHT22;35570;48.218;16.326;2023-02-27T15:37:37;5.10;55.90
49679;DHT22;35570;48.218;16.326;2023-02-27T15:40:04;5.00;52.40
49679;DHT22;35570;48.218;16.326;2023-02-27T15:42:32;5.00;53.40
49679;DHT22;35570;48.218;16.326;2023-02-27T15:45:01;5.00;53.60
49679;DHT22;35570;48.218;16.326;2023-02-27T15:47:31;4.90;53.30
49679;DHT22;35570;48.218;16.326;2023-02-27T15:50:08;4.90;53.50
49679;DHT22;35570;48.218;16.326;2023-02-27T15:52:53;4.80;53.00
49679;DHT22;35570;48.218;16.326;2023-02-27T15:55:49;4.80;55.10
49679;DHT22;35570;48.218;16.326;2023-02-27T15:58:20;4.80;53.30
49679;DHT22;35570;48.218;16.326;2023-02-27T16:00:48;4.80;52.90
49679;DHT22;35570;48.218;16.326;2023-02-27T16:03:18;4.70;54.60
49679;DHT22;35570;48.218;16.326;2023-02-27T16:05:50;4.70;53.90
49679;DHT22;35570;48.218;16.326;2023-02-27T16:08:18;4.70;52.80
49679;DHT22;35570;48.218;16.326;2023-02-27T16:10:45;4.70;54.20
49679;DHT22;35570;48.218;16.326;2023-02-27T16:16:25;4.70;52.60
49679;DHT22;35570;48.218;16.326;2023-02-27T16:18:54;6.00;55.30
49679;DHT22;35570;48.218;16.326;2023-02-27T16:21:28;4.50;55.60
49679;DHT22;35570;48.218;16.326;2023-02-27T16:24:19;4.60;55.30
49679;DHT22;35570;48.218;16.326;2023-02-27T16:26:50;4.50;53.70
49679;DHT22;35570;48.218;16.326;2023-02-27T16:29:19;4.50;54.30
49679;DHT22;35570;48.218;16.326;2023-02-27T16:31:54;4.50;55.80
49679;DHT22;35570;48.218;16.326;2023-02-27T16:34:32;4.50;56.00
49679;DHT22;35570;48.218;16.326;2023-02-27T16:37:02;4.50;54.70
49679;DHT22;35570;48.218;16.326;2023-02-27T16:39:30;4.50;56.70
49679;DHT22;35570;48.218;16.326;2023-02-27T16:41:58;4.50;54.50
49679;DHT22;35570;48.218;16.326;2023-02-27T16:44:24;4.50;54.00
49679;DHT22;35570;48.218;16.326;2023-02-27T16:46:51;4.40;55.40
49679;DHT22;35570;48.218;16.326;2023-02-27T16:49:22;4.50;56.60
49679;DHT22;35570;48.218;16.326;2023-02-27T16:51:49;4.40;54.90
49679;DHT22;35570;48.218;16.326;2023-02-27T17:01:07;4.40;56.90
49679;DHT22;35570;48.218;16.326;2023-02-27T17:07:00;4.30;57.30
49679;DHT22;35570;48.218;16.326;2023-02-27T17:42:34;4.10;58.40
49679;DHT22;35570;48.218;16.326;2023-02-27T17:45:05;4.00;59.10
49679;DHT22;35570;48.218;16.326;2023-02-27T17:47:32;4.00;59.70
49679;DHT22;35570;48.218;16.326;2023-02-27T17:49:58;3.90;60.00
49679;DHT22;35570;48.218;16.326;2023-02-27T17:52:34;4.00;60.00
49679;DHT22;35570;48.218;16.326;2023-02-27T18:23:43;3.80;62.10
49679;DHT22;35570;48.218;16.326;2023-02-27T18:26:16;3.80;62.00
49679;DHT22;35570;48.218;16.326;2023-02-27T18:28:42;3.80;62.90
49679;DHT22;35570;48.218;16.326;2023-02-27T18:31:24;3.80;62.50
49679;DHT22;35570;48.218;16.326;2023-02-27T18:33:51;3.80;62.50
49679;DHT22;35570;48.218;16.326;2023-02-27T18:36:17;3.80;62.30
49679;DHT22;35570;48.218;16.326;2023-02-27T18:38:44;3.80;62.80
49679;DHT22;35570;48.218;16.326;2023-02-27T18:41:10;3.80;62.90
49679;DHT22;35570;48.218;16.326;2023-02-27T18:43:39;3.80;63.30
49679;DHT22;35570;48.218;16.326;2023-02-27T18:46:07;3.80;63.80
49679;DHT22;35570;48.218;16.326;2023-02-27T18:48:33;3.80;63.20
49679;DHT22;35570;48.218;16.326;2023-02-27T18:51:00;3.80;63.70
49679;DHT22;35570;48.218;16.326;2023-02-27T18:53:27;3.80;63.60
49679;DHT22;35570;48.218;16.326;2023-02-27T18:56:02;3.80;63.80
49679;DHT22;35570;48.218;16.326;2023-02-27T18:58:30;3.80;64.50
49679;DHT22;35570;48.218;16.326;2023-02-27T19:00:57;3.80;63.80
49679;DHT22;35570;48.218;16.326;2023-02-27T19:05:58;3.70;64.20
49679;DHT22;35570;48.218;16.326;2023-02-27T19:08:25;3.70;65.30
49679;DHT22;35570;48.218;16.326;2023-02-27T19:10:58;3.70;64.40
49679;DHT22;35570;48.218;16.326;2023-02-27T19:13:25;3.70;64.80
49679;DHT22;35570;48.218;16.326;2023-02-27T19:15:51;3.70;64.20
49679;DHT22;35570;48.218;16.326;2023-02-27T19:18:18;3.70;64.30
49679;DHT22;35570;48.218;16.326;2023-02-27T19:20:44;3.70;64.10
49679;DHT22;35570;48.218;16.326;2023-02-27T19:23:10;3.70;64.20
49679;DHT22;35570;48.218;16.326;2023-02-27T19:25:38;3.60;64.10
49679;DHT22;35570;48.218;16.326;2023-02-27T19:28:06;3.60;64.80